createdAt,value
2019-01-02T00:00:39.271Z,2.24
2019-01-02T00:01:39.264Z,2.14
2019-01-02T00:02:39.297Z,2.10
2019-01-02T00:03:39.247Z,2.11
2019-01-02T00:04:39.228Z,2.26
2019-01-02T00:05:39.225Z,2.22
2019-01-02T00:06:39.215Z,2.28
2019-01-02T00:07:39.204Z,2.25
2019-01-02T00:08:39.236Z,2.31
2019-01-02T00:09:39.187Z,2.31
2019-01-02T00:10:39.171Z,2.22
2019-01-02T00:11:39.155Z,2.26
2019-01-02T00:12:39.149Z,2.26
2019-01-02T00:13:39.133Z,2.13
2019-01-02T00:14:39.166Z,2.10
2019-01-02T00:15:39.117Z,2.14
2019-01-02T00:16:39.104Z,2.13
2019-01-02T00:17:39.105Z,2.11
2019-01-02T00:18:39.086Z,2.17
2019-01-02T00:19:39.070Z,2.10
2019-01-02T00:20:39.068Z,2.08
2019-01-02T00:21:39.071Z,2.10
2019-01-02T00:22:39.064Z,2.15
2019-01-02T00:23:39.027Z,2.20
2019-01-02T00:24:39.017Z,2.22
2019-01-02T00:25:39.006Z,2.07
2019-01-02T00:26:38.996Z,2.15
2019-01-02T00:27:39.011Z,2.17
2019-01-02T00:28:39.005Z,2.11
2019-01-02T00:29:38.968Z,2.14
2019-01-02T00:30:38.953Z,2.08
2019-01-02T00:31:38.944Z,2.04
2019-01-02T00:32:38.943Z,1.99
2019-01-02T00:33:38.924Z,1.95
2019-01-02T00:34:38.928Z,1.99
2019-01-02T00:35:38.899Z,1.99
2019-01-02T00:36:38.897Z,2.02
2019-01-02T00:37:38.897Z,2.02
2019-01-02T00:38:38.886Z,2.07
2019-01-02T00:39:38.872Z,1.94
2019-01-02T00:40:38.845Z,1.97
2019-01-02T00:41:38.840Z,1.94
2019-01-02T00:42:38.847Z,1.88
2019-01-02T00:43:38.814Z,1.81
2019-01-02T00:44:38.804Z,1.84
2019-01-02T00:45:38.808Z,1.85
2019-01-02T00:46:38.800Z,1.84
2019-01-02T00:47:38.786Z,1.88
2019-01-02T00:48:38.785Z,1.89
2019-01-02T00:49:38.768Z,1.91
2019-01-02T00:50:38.750Z,1.95
2019-01-02T00:51:38.775Z,2.02
2019-01-02T00:52:38.748Z,1.97
2019-01-02T00:53:38.753Z,2.08
2019-01-02T00:54:38.754Z,1.92
2019-01-02T00:55:38.705Z,2.02
2019-01-02T00:56:38.731Z,1.94
2019-01-02T00:57:38.698Z,2.06
2019-01-02T00:58:38.668Z,2.02
2019-01-02T00:59:38.652Z,2.04
2019-01-02T01:00:38.697Z,2.10
2019-01-02T01:01:38.674Z,1.95
2019-01-02T01:02:38.625Z,2.00
2019-01-02T01:03:38.609Z,1.99
2019-01-02T01:04:38.697Z,2.08
2019-01-02T01:05:38.590Z,2.00
2019-01-02T01:06:38.595Z,2.08
2019-01-02T01:07:38.578Z,2.04
2019-01-02T01:08:38.612Z,2.10
2019-01-02T01:09:38.553Z,2.10
2019-01-02T01:10:38.547Z,2.13
2019-01-02T01:11:38.519Z,2.04
2019-01-02T01:12:38.540Z,2.00
2019-01-02T01:13:38.501Z,2.00
2019-01-02T01:14:38.500Z,2.00
2019-01-02T01:15:38.510Z,2.02
2019-01-02T01:16:38.476Z,1.95
2019-01-02T01:17:38.473Z,1.94
2019-01-02T01:18:38.462Z,1.88
2019-01-02T01:19:38.442Z,1.97
2019-01-02T01:20:38.420Z,1.92
2019-01-02T01:21:38.417Z,1.91
2019-01-02T01:22:38.520Z,2.10
2019-01-02T01:23:38.388Z,2.10
2019-01-02T01:24:38.399Z,2.11
2019-01-02T01:25:38.376Z,2.08
2019-01-02T01:26:38.362Z,2.13
2019-01-02T01:27:38.363Z,2.14
2019-01-02T01:28:38.429Z,2.29
2019-01-02T01:29:38.370Z,2.22
2019-01-02T01:30:38.349Z,2.10
2019-01-02T01:31:38.329Z,2.10
2019-01-02T01:32:38.332Z,2.11
2019-01-02T01:33:38.300Z,2.11
2019-01-02T01:34:38.305Z,2.13
2019-01-02T01:35:38.271Z,2.14
2019-01-02T01:36:38.275Z,2.10
2019-01-02T01:37:38.247Z,2.11
2019-01-02T01:38:38.261Z,1.99
2019-01-02T01:39:38.259Z,1.91
2019-01-02T01:40:38.246Z,1.95
2019-01-02T01:41:38.223Z,1.81
2019-01-02T01:42:38.212Z,1.87
2019-01-02T01:43:38.189Z,1.89
2019-01-02T01:44:38.191Z,1.81
2019-01-02T01:45:38.158Z,1.78
2019-01-02T01:46:38.173Z,1.77
2019-01-02T01:47:38.164Z,1.85
2019-01-02T01:48:38.148Z,1.85
2019-01-02T01:49:38.123Z,1.85
2019-01-02T01:50:38.130Z,1.84
2019-01-02T01:51:38.110Z,1.80
2019-01-02T01:52:38.113Z,1.88
2019-01-02T01:53:38.176Z,1.84
2019-01-02T01:54:38.068Z,1.88
2019-01-02T01:55:38.065Z,1.88
2019-01-02T01:56:38.079Z,1.95
2019-01-02T01:57:38.080Z,2.02
2019-01-02T01:58:38.065Z,2.07
2019-01-02T01:59:38.031Z,2.06
2019-01-02T02:00:38.009Z,1.91
2019-01-02T02:01:38.007Z,1.97
2019-01-02T02:02:38.027Z,2.04
2019-01-02T02:03:37.982Z,2.02
2019-01-02T02:04:38.037Z,1.99
2019-01-02T02:05:37.964Z,2.00
2019-01-02T02:06:37.948Z,1.99
2019-01-02T02:07:37.946Z,1.99
2019-01-02T02:08:37.932Z,1.92
2019-01-02T02:09:38.015Z,1.94
2019-01-02T02:10:37.893Z,1.91
2019-01-02T02:11:37.887Z,1.80
2019-01-02T02:12:37.921Z,1.81
2019-01-02T02:13:37.866Z,1.80
2019-01-02T02:14:37.856Z,1.77
2019-01-02T02:15:37.861Z,1.84
2019-01-02T02:16:37.849Z,1.87
2019-01-02T02:17:37.857Z,2.00
2019-01-02T02:18:38.024Z,2.04
2019-01-02T02:19:37.800Z,2.10
2019-01-02T02:20:37.789Z,2.14
2019-01-02T02:21:37.791Z,2.07
2019-01-02T02:22:37.801Z,2.08
2019-01-02T02:23:37.793Z,2.13
2019-01-02T02:24:37.746Z,1.94
2019-01-02T02:25:37.745Z,2.10
2019-01-02T02:26:37.722Z,2.08
2019-01-02T02:27:37.722Z,2.10
2019-01-02T02:28:37.724Z,2.14
2019-01-02T02:29:37.713Z,2.13
2019-01-02T02:30:37.685Z,2.15
2019-01-02T02:31:37.674Z,2.26
2019-01-02T02:32:37.672Z,2.17
2019-01-02T02:33:37.658Z,2.11
2019-01-02T02:34:37.651Z,2.11
2019-01-02T02:35:37.682Z,2.33
2019-01-02T02:36:37.628Z,2.22
2019-01-02T02:37:37.618Z,2.24
2019-01-02T02:38:37.613Z,2.28
2019-01-02T02:39:37.621Z,2.32
2019-01-02T02:40:37.596Z,2.26
2019-01-02T02:41:37.627Z,2.20
2019-01-02T02:42:37.589Z,2.18
2019-01-02T02:43:37.545Z,2.20
2019-01-02T02:44:37.553Z,2.13
2019-01-02T02:45:37.525Z,2.08
2019-01-02T02:46:37.508Z,2.13
2019-01-02T02:47:37.548Z,2.11
2019-01-02T02:48:37.491Z,2.06
2019-01-02T02:49:37.517Z,1.97
2019-01-02T02:50:37.490Z,2.11
2019-01-02T02:51:37.469Z,2.06
2019-01-02T02:52:37.454Z,2.08
2019-01-02T02:53:37.525Z,1.92
2019-01-02T02:54:37.439Z,2.10
2019-01-02T02:55:37.419Z,2.07
2019-01-02T02:56:37.468Z,2.06
2019-01-02T02:57:37.410Z,2.10
2019-01-02T02:58:37.421Z,2.13
2019-01-02T02:59:37.391Z,1.95
2019-01-02T03:00:37.416Z,2.07
2019-01-02T03:01:37.361Z,1.97
2019-01-02T03:02:37.361Z,1.88
2019-01-02T03:03:37.367Z,1.95
2019-01-02T03:04:37.328Z,1.84
2019-01-02T03:05:37.326Z,1.89
2019-01-02T03:06:37.301Z,1.92
2019-01-02T03:07:37.301Z,2.00
2019-01-02T03:08:37.336Z,2.14
2019-01-02T03:09:37.287Z,2.15
2019-01-02T03:10:37.285Z,2.15
2019-01-02T03:11:37.265Z,2.11
2019-01-02T03:12:37.272Z,2.08
2019-01-02T03:13:37.258Z,1.94
2019-01-02T03:14:37.255Z,2.06
2019-01-02T03:15:37.234Z,1.97
2019-01-02T03:16:37.211Z,2.02
2019-01-02T03:17:37.188Z,1.97
2019-01-02T03:18:37.188Z,1.99
2019-01-02T03:19:37.218Z,2.00
2019-01-02T03:20:37.151Z,2.10
2019-01-02T03:21:37.233Z,2.04
2019-01-02T03:22:37.136Z,2.11
2019-01-02T03:23:37.257Z,2.07
2019-01-02T03:24:37.159Z,2.07
2019-01-02T03:25:37.116Z,1.91
2019-01-02T03:26:37.124Z,1.94
2019-01-02T03:27:37.093Z,1.99
2019-01-02T03:28:37.085Z,1.99
2019-01-02T03:29:37.234Z,2.00
2019-01-02T03:30:37.061Z,1.92
2019-01-02T03:31:37.068Z,1.95
2019-01-02T03:32:37.031Z,1.89
2019-01-02T03:33:37.035Z,1.84
2019-01-02T03:34:37.100Z,1.87
2019-01-02T03:35:37.052Z,1.80
2019-01-02T03:36:36.998Z,1.80
2019-01-02T03:37:36.982Z,1.78
2019-01-02T03:38:36.986Z,1.89
2019-01-02T03:39:36.960Z,1.78
2019-01-02T03:40:36.979Z,1.85
2019-01-02T03:41:37.036Z,1.88
2019-01-02T03:42:36.958Z,1.80
2019-01-02T03:43:36.927Z,1.88
2019-01-02T03:44:36.938Z,1.85
2019-01-02T03:45:36.910Z,1.73
2019-01-02T03:46:36.892Z,1.78
2019-01-02T03:47:36.894Z,1.78
2019-01-02T03:48:36.871Z,1.77
2019-01-02T03:49:36.951Z,1.70
2019-01-02T03:50:36.843Z,1.77
2019-01-02T03:51:36.832Z,1.66
2019-01-02T03:52:36.816Z,1.73
2019-01-02T03:53:36.848Z,1.76
2019-01-02T03:54:36.868Z,1.62
2019-01-02T03:55:36.804Z,1.76
2019-01-02T03:56:36.777Z,1.77
2019-01-02T03:57:36.798Z,1.84
2019-01-02T03:58:36.757Z,1.84
2019-01-02T03:59:36.755Z,1.89
2019-01-02T04:00:36.735Z,2.02
2019-01-02T04:01:36.771Z,2.02
2019-01-02T04:02:36.719Z,2.11
2019-01-02T04:03:36.711Z,2.10
2019-01-02T04:04:36.732Z,2.17
2019-01-02T04:05:36.697Z,2.10
2019-01-02T04:06:36.686Z,2.24
2019-01-02T04:07:36.684Z,2.14
2019-01-02T04:08:36.693Z,2.10
2019-01-02T04:09:36.669Z,2.11
2019-01-02T04:10:36.652Z,2.15
2019-01-02T04:11:36.636Z,2.14
2019-01-02T04:12:36.613Z,2.10
2019-01-02T04:13:36.594Z,2.08
2019-01-02T04:14:36.656Z,2.13
2019-01-02T04:15:36.576Z,2.13
2019-01-02T04:16:36.590Z,2.10
2019-01-02T04:17:36.556Z,2.07
2019-01-02T04:18:36.545Z,2.04
2019-01-02T04:19:36.571Z,2.15
2019-01-02T04:20:36.534Z,2.14
2019-01-02T04:21:36.515Z,2.10
2019-01-02T04:22:36.512Z,2.13
2019-01-02T04:23:36.495Z,2.07
2019-01-02T04:24:36.500Z,2.07
2019-01-02T04:25:36.476Z,2.10
2019-01-02T04:26:36.451Z,2.13
2019-01-02T04:27:36.445Z,2.14
2019-01-02T04:28:36.517Z,2.13
2019-01-02T04:29:36.464Z,2.13
2019-01-02T04:30:36.437Z,2.10
2019-01-02T04:31:36.407Z,2.08
2019-01-02T04:32:36.388Z,2.08
2019-01-02T04:33:36.421Z,2.13
2019-01-02T04:34:36.394Z,2.06
2019-01-02T04:35:36.366Z,1.95
2019-01-02T04:36:36.351Z,1.99
2019-01-02T04:37:36.352Z,1.94
2019-01-02T04:38:36.379Z,1.92
2019-01-02T04:39:36.331Z,1.92
2019-01-02T04:40:36.347Z,2.02
2019-01-02T04:41:36.297Z,2.14
2019-01-02T04:42:36.380Z,2.08
2019-01-02T04:43:36.274Z,2.26
2019-01-02T04:44:36.260Z,2.25
2019-01-02T04:45:36.300Z,2.33
2019-01-02T04:46:36.295Z,2.39
2019-01-02T04:47:36.241Z,2.39
2019-01-02T04:48:36.294Z,2.35
2019-01-02T04:49:36.232Z,2.39
2019-01-02T04:50:36.208Z,2.35
2019-01-02T04:51:36.223Z,2.38
2019-01-02T04:52:36.223Z,2.25
2019-01-02T04:53:36.175Z,2.25
2019-01-02T04:54:36.241Z,2.22
2019-01-02T04:55:36.146Z,2.28
2019-01-02T04:56:36.147Z,2.22
2019-01-02T04:57:36.145Z,2.32
2019-01-02T04:58:36.120Z,2.31
2019-01-02T04:59:36.130Z,2.22
2019-01-02T05:00:36.132Z,2.31
2019-01-02T05:01:36.094Z,2.18
2019-01-02T05:02:36.084Z,2.22
2019-01-02T05:03:36.065Z,2.20
2019-01-02T05:04:36.077Z,2.32
2019-01-02T05:05:36.073Z,2.29
2019-01-02T05:06:36.072Z,2.28
2019-01-02T05:07:36.030Z,2.24
2019-01-02T05:08:36.014Z,2.35
2019-01-02T05:09:36.036Z,2.29
2019-01-02T05:10:36.003Z,2.35
2019-01-02T05:11:35.993Z,2.35
2019-01-02T05:12:35.984Z,2.31
2019-01-02T05:13:35.954Z,2.32
2019-01-02T05:14:35.952Z,2.35
2019-01-02T05:15:35.992Z,2.38
2019-01-02T05:16:35.923Z,2.47
2019-01-02T05:17:35.924Z,2.49
2019-01-02T05:18:35.924Z,2.44
2019-01-02T05:19:35.888Z,2.44
2019-01-02T05:20:35.897Z,2.50
2019-01-02T05:21:35.894Z,2.49
2019-01-02T05:22:35.860Z,2.53
2019-01-02T05:23:35.857Z,2.49
2019-01-02T05:24:35.838Z,2.49
2019-01-02T05:25:35.851Z,2.42
2019-01-02T05:26:35.815Z,2.47
2019-01-02T05:27:36.039Z,2.47
2019-01-02T05:28:35.797Z,2.38
2019-01-02T05:29:35.791Z,2.46
2019-01-02T05:30:35.786Z,2.49
2019-01-02T05:31:35.759Z,2.39
2019-01-02T05:32:35.749Z,2.47
2019-01-02T05:33:35.737Z,2.43
2019-01-02T05:34:35.728Z,2.44
2019-01-02T05:35:35.767Z,2.47
2019-01-02T05:36:35.712Z,2.49
2019-01-02T05:37:35.698Z,2.39
2019-01-02T05:38:35.691Z,2.36
2019-01-02T05:39:35.678Z,2.43
2019-01-02T05:40:35.679Z,2.36
2019-01-02T05:41:35.680Z,2.38
2019-01-02T05:42:35.648Z,2.49
2019-01-02T05:43:35.650Z,2.44
2019-01-02T05:44:35.635Z,2.39
2019-01-02T05:45:35.610Z,2.36
2019-01-02T05:46:35.632Z,2.39
2019-01-02T05:47:35.597Z,2.29
2019-01-02T05:48:35.817Z,2.20
2019-01-02T05:49:35.571Z,2.22
2019-01-02T05:50:35.576Z,2.24
2019-01-02T05:51:35.548Z,2.25
2019-01-02T05:52:35.539Z,2.42
2019-01-02T05:53:35.525Z,2.36
2019-01-02T05:54:35.538Z,2.42
2019-01-02T05:55:35.528Z,2.44
2019-01-02T05:56:35.497Z,2.35
2019-01-02T05:57:35.492Z,2.36
2019-01-02T05:58:35.470Z,2.39
2019-01-02T05:59:35.460Z,2.39
2019-01-02T06:00:39.794Z,2.47
2019-01-02T06:01:35.441Z,2.47
2019-01-02T06:02:35.429Z,2.56
2019-01-02T06:03:35.418Z,2.53
2019-01-02T06:04:35.407Z,2.54
2019-01-02T06:05:35.415Z,2.54
2019-01-02T06:06:35.426Z,2.54
2019-01-02T06:07:35.405Z,2.46
2019-01-02T06:08:35.416Z,2.50
2019-01-02T06:09:35.546Z,2.53
2019-01-02T06:10:35.397Z,2.47
2019-01-02T06:11:35.368Z,2.42
2019-01-02T06:12:35.346Z,2.43
2019-01-02T06:13:35.354Z,2.43
2019-01-02T06:14:35.316Z,2.29
2019-01-02T06:15:35.445Z,2.29
2019-01-02T06:16:35.365Z,2.25
2019-01-02T06:17:35.358Z,2.22
2019-01-02T06:18:35.346Z,2.25
2019-01-02T06:19:35.288Z,2.20
2019-01-02T06:20:35.325Z,2.22
2019-01-02T06:21:35.261Z,2.17
2019-01-02T06:22:35.274Z,2.20
2019-01-02T06:23:35.263Z,2.25
2019-01-02T06:24:35.234Z,2.26
2019-01-02T06:25:35.195Z,2.20
2019-01-02T06:26:35.187Z,2.39
2019-01-02T06:27:35.251Z,2.38
2019-01-02T06:28:35.151Z,2.33
2019-01-02T06:29:35.144Z,2.39
2019-01-02T06:30:35.146Z,2.43
2019-01-02T06:31:35.159Z,2.49
2019-01-02T06:32:35.124Z,2.44
2019-01-02T06:33:35.115Z,2.43
2019-01-02T06:34:35.124Z,2.42
2019-01-02T06:35:35.106Z,2.31
2019-01-02T06:36:35.090Z,2.33
2019-01-02T06:37:35.213Z,2.22
2019-01-02T06:38:35.079Z,2.22
2019-01-02T06:39:35.093Z,2.24
2019-01-02T06:40:35.062Z,2.11
2019-01-02T06:41:35.019Z,2.10
2019-01-02T06:42:35.027Z,2.11
2019-01-02T06:43:35.109Z,2.10
2019-01-02T06:44:35.008Z,2.14
2019-01-02T06:45:34.999Z,2.11
2019-01-02T06:46:35.017Z,2.15
2019-01-02T06:47:34.972Z,2.13
2019-01-02T06:48:35.035Z,2.13
2019-01-02T06:49:34.927Z,2.08
2019-01-02T06:50:34.936Z,1.95
2019-01-02T06:51:34.929Z,2.02
2019-01-02T06:52:34.924Z,2.08
2019-01-02T06:53:34.893Z,1.95
2019-01-02T06:54:34.917Z,2.02
2019-01-02T06:55:34.901Z,2.02
2019-01-02T06:56:34.865Z,2.00
2019-01-02T06:57:34.848Z,1.94
2019-01-02T06:58:34.841Z,1.94
2019-01-02T06:59:34.854Z,1.97
2019-01-02T07:00:34.830Z,2.08
2019-01-02T07:01:34.819Z,2.13
2019-01-02T07:02:34.813Z,2.14
2019-01-02T07:03:34.789Z,2.26
2019-01-02T07:04:34.801Z,2.13
2019-01-02T07:05:34.774Z,2.14
2019-01-02T07:06:34.793Z,2.18
2019-01-02T07:07:34.741Z,2.20
2019-01-02T07:08:34.729Z,2.13
2019-01-02T07:09:34.735Z,2.13
2019-01-02T07:10:34.707Z,2.10
2019-01-02T07:11:34.779Z,2.11
2019-01-02T07:12:34.708Z,2.15
2019-01-02T07:13:34.748Z,2.02
2019-01-02T07:14:34.714Z,1.92
2019-01-02T07:15:34.655Z,1.99
2019-01-02T07:16:34.660Z,1.94
2019-01-02T07:17:34.680Z,2.00
2019-01-02T07:18:34.773Z,2.10
2019-01-02T07:19:34.680Z,2.18
2019-01-02T07:20:34.671Z,2.13
2019-01-02T07:21:34.777Z,2.04
2019-01-02T07:22:34.643Z,2.13
2019-01-02T07:23:34.641Z,2.10
2019-01-02T07:24:34.576Z,2.17
2019-01-02T07:25:34.574Z,2.15
2019-01-02T07:26:34.564Z,2.14
2019-01-02T07:27:34.563Z,2.15
2019-01-02T07:28:34.586Z,2.11
2019-01-02T07:29:34.573Z,2.08
2019-01-02T07:30:34.546Z,2.08
2019-01-02T07:31:34.555Z,2.17
2019-01-02T07:32:34.536Z,2.10
2019-01-02T07:33:34.490Z,2.17
2019-01-02T07:34:34.529Z,2.26
2019-01-02T07:35:34.545Z,2.20
2019-01-02T07:36:34.450Z,2.33
2019-01-02T07:37:34.461Z,2.39
2019-01-02T07:38:34.429Z,2.42
2019-01-02T07:39:34.414Z,2.47
2019-01-02T07:40:34.407Z,2.46
2019-01-02T07:41:34.382Z,2.44
2019-01-02T07:42:34.406Z,2.49
2019-01-02T07:43:34.387Z,2.46
2019-01-02T07:44:34.364Z,2.43
2019-01-02T07:45:34.354Z,2.39
2019-01-02T07:46:34.345Z,2.39
2019-01-02T07:47:34.327Z,2.38
2019-01-02T07:48:34.328Z,2.38
2019-01-02T07:49:34.312Z,2.33
2019-01-02T07:50:34.283Z,2.35
2019-01-02T07:51:34.348Z,2.33
2019-01-02T07:52:34.277Z,2.38
2019-01-02T07:53:34.299Z,2.38
2019-01-02T07:54:34.277Z,2.33
2019-01-02T07:55:34.230Z,2.26
2019-01-02T07:56:34.227Z,2.36
2019-01-02T07:57:34.231Z,2.36
2019-01-02T07:58:34.202Z,2.26
2019-01-02T07:59:34.695Z,2.38
2019-01-02T08:00:34.237Z,2.38
2019-01-02T08:01:34.178Z,2.42
2019-01-02T08:02:34.181Z,2.33
2019-01-02T08:03:34.137Z,2.32
2019-01-02T08:04:34.138Z,2.44
2019-01-02T08:05:34.161Z,2.39
2019-01-02T08:06:34.115Z,2.44
2019-01-02T08:07:34.126Z,2.39
2019-01-02T08:08:34.112Z,2.39
2019-01-02T08:09:34.083Z,2.47
2019-01-02T08:10:34.120Z,2.47
2019-01-02T08:11:34.836Z,2.43
2019-01-02T08:12:34.060Z,2.44
2019-01-02T08:13:34.054Z,2.43
2019-01-02T08:14:34.034Z,2.39
2019-01-02T08:15:34.015Z,2.50
2019-01-02T08:16:34.053Z,2.42
2019-01-02T08:17:34.065Z,2.28
2019-01-02T08:18:33.996Z,2.25
2019-01-02T08:19:33.981Z,2.24
2019-01-02T08:20:33.989Z,2.26
2019-01-02T08:21:33.963Z,2.25
2019-01-02T08:22:33.980Z,2.17
2019-01-02T08:23:33.999Z,2.15
2019-01-02T08:24:33.938Z,2.13
2019-01-02T08:25:33.915Z,2.13
2019-01-02T08:26:33.926Z,2.13
2019-01-02T08:27:33.898Z,2.10
2019-01-02T08:28:33.905Z,2.28
2019-01-02T08:29:33.890Z,2.24
2019-01-02T08:30:33.858Z,2.24
2019-01-02T08:31:33.877Z,2.24
2019-01-02T08:32:33.863Z,2.24
2019-01-02T08:33:33.840Z,2.26
2019-01-02T08:34:33.822Z,2.33
2019-01-02T08:35:33.947Z,2.42
2019-01-02T08:36:33.817Z,2.39
2019-01-02T08:37:33.783Z,2.46
2019-01-02T08:38:33.790Z,2.42
2019-01-02T08:39:33.759Z,2.44
2019-01-02T08:40:33.745Z,2.49
2019-01-02T08:41:33.756Z,2.44
2019-01-02T08:42:33.729Z,2.49
2019-01-02T08:43:33.770Z,2.60
2019-01-02T08:44:33.700Z,2.53
2019-01-02T08:45:33.689Z,2.60
2019-01-02T08:46:33.733Z,2.64
2019-01-02T08:47:33.674Z,2.61
2019-01-02T08:48:33.675Z,2.71
2019-01-02T08:49:33.670Z,2.68
2019-01-02T08:50:33.646Z,2.64
2019-01-02T08:51:33.657Z,2.65
2019-01-02T08:52:33.636Z,2.67
2019-01-02T08:53:33.617Z,2.68
2019-01-02T08:54:33.602Z,2.72
2019-01-02T08:55:33.644Z,2.79
2019-01-02T08:56:33.774Z,2.74
2019-01-02T08:57:33.565Z,2.79
2019-01-02T08:58:33.627Z,2.65
2019-01-02T08:59:33.540Z,2.69
2019-01-02T09:00:33.527Z,2.82
2019-01-02T09:01:33.598Z,2.72
2019-01-02T09:02:33.520Z,2.77
2019-01-02T09:03:33.510Z,2.72
2019-01-02T09:04:33.506Z,2.74
2019-01-02T09:05:33.509Z,2.79
2019-01-02T09:06:33.466Z,2.75
2019-01-02T09:07:33.462Z,2.80
2019-01-02T09:08:33.449Z,2.85
2019-01-02T09:09:33.449Z,2.92
2019-01-02T09:10:33.445Z,2.87
2019-01-02T09:11:33.422Z,2.80
2019-01-02T09:12:33.419Z,2.97
2019-01-02T09:13:33.472Z,2.89
2019-01-02T09:14:33.397Z,2.93
2019-01-02T09:15:33.385Z,2.95
2019-01-02T09:16:33.382Z,2.98
2019-01-02T09:17:33.492Z,2.93
2019-01-02T09:18:33.345Z,2.90
2019-01-02T09:19:33.351Z,2.97
2019-01-02T09:20:33.350Z,3.07
2019-01-02T09:21:33.320Z,3.01
2019-01-02T09:22:33.309Z,3.10
2019-01-02T09:23:33.318Z,3.01
2019-01-02T09:24:33.314Z,3.01
2019-01-02T09:25:33.351Z,3.16
2019-01-02T09:26:33.259Z,3.10
2019-01-02T09:27:33.260Z,3.05
2019-01-02T09:28:33.248Z,3.07
2019-01-02T09:29:33.279Z,3.16
2019-01-02T09:30:33.258Z,3.11
2019-01-02T09:31:33.206Z,3.13
2019-01-02T09:32:33.194Z,3.07
2019-01-02T09:33:33.180Z,3.07
2019-01-02T09:34:33.175Z,3.07
2019-01-02T09:35:33.199Z,3.01
2019-01-02T09:36:33.202Z,3.01
2019-01-02T09:37:33.145Z,3.05
2019-01-02T09:38:33.129Z,3.05
2019-01-02T09:39:33.121Z,3.08
2019-01-02T09:40:33.212Z,3.01
2019-01-02T09:41:33.362Z,3.10
2019-01-02T09:42:33.093Z,3.04
2019-01-02T09:43:33.087Z,3.08
2019-01-02T09:44:33.101Z,3.11
2019-01-02T09:45:33.064Z,3.22
2019-01-02T09:46:33.100Z,3.19
2019-01-02T09:47:33.053Z,3.13
2019-01-02T09:48:33.027Z,3.21
2019-01-02T09:49:33.060Z,3.14
2019-01-02T09:50:33.033Z,3.18
2019-01-02T09:51:32.995Z,3.16
2019-01-02T09:52:33.011Z,3.22
2019-01-02T09:53:32.974Z,3.23
2019-01-02T09:54:32.964Z,3.18
2019-01-02T09:55:33.012Z,3.16
2019-01-02T09:56:32.945Z,3.18
2019-01-02T09:57:32.931Z,3.18
2019-01-02T09:58:32.924Z,3.14
2019-01-02T09:59:33.133Z,3.16
2019-01-02T10:00:32.901Z,3.16
2019-01-02T10:01:32.944Z,3.21
2019-01-02T10:02:32.909Z,3.18
2019-01-02T10:03:32.870Z,3.11
2019-01-02T10:04:32.858Z,3.22
2019-01-02T10:05:32.851Z,3.16
2019-01-02T10:06:32.834Z,3.19
2019-01-02T10:07:32.842Z,3.14
2019-01-02T10:08:32.825Z,3.19
2019-01-02T10:09:32.827Z,3.14
2019-01-02T10:10:32.792Z,3.14
2019-01-02T10:11:32.786Z,3.16
2019-01-02T10:12:32.797Z,3.14
2019-01-02T10:13:32.781Z,3.19
2019-01-02T10:14:32.749Z,3.18
2019-01-02T10:15:32.746Z,3.25
2019-01-02T10:16:32.742Z,3.29
2019-01-02T10:17:32.754Z,3.32
2019-01-02T10:18:32.710Z,3.37
2019-01-02T10:19:32.745Z,3.36
2019-01-02T10:20:32.707Z,3.37
2019-01-02T10:21:32.730Z,3.42
2019-01-02T10:22:32.666Z,3.45
2019-01-02T10:23:32.730Z,3.50
2019-01-02T10:24:32.669Z,3.48
2019-01-02T10:25:32.661Z,3.41
2019-01-02T10:26:32.626Z,3.50
2019-01-02T10:27:32.623Z,3.44
2019-01-02T10:28:32.615Z,3.44
2019-01-02T10:29:32.596Z,3.48
2019-01-02T10:30:32.576Z,3.40
2019-01-02T10:31:32.594Z,3.55
2019-01-02T10:32:32.558Z,3.44
2019-01-02T10:33:32.545Z,3.50
2019-01-02T10:34:32.581Z,3.40
2019-01-02T10:35:32.539Z,3.48
2019-01-02T10:36:32.518Z,3.48
2019-01-02T10:37:32.515Z,3.45
2019-01-02T10:38:32.494Z,3.41
2019-01-02T10:39:32.509Z,3.32
2019-01-02T10:40:32.497Z,3.31
2019-01-02T10:41:32.462Z,3.37
2019-01-02T10:42:32.663Z,3.26
2019-01-02T10:43:32.442Z,3.32
2019-01-02T10:44:32.439Z,3.28
2019-01-02T10:45:32.432Z,3.32
2019-01-02T10:46:32.426Z,3.29
2019-01-02T10:47:33.708Z,3.32
2019-01-02T10:48:32.385Z,3.40
2019-01-02T10:49:32.380Z,3.34
2019-01-02T10:50:32.371Z,3.48
2019-01-02T10:51:32.354Z,3.37
2019-01-02T10:52:32.358Z,3.41
2019-01-02T10:53:32.361Z,3.41
2019-01-02T10:54:32.329Z,3.41
2019-01-02T10:55:32.314Z,3.36
2019-01-02T10:56:32.301Z,3.44
2019-01-02T10:57:32.295Z,3.41
2019-01-02T10:58:36.553Z,3.41
2019-01-02T10:59:32.272Z,3.32
2019-01-02T11:00:32.270Z,3.47
2019-01-02T11:01:32.250Z,3.40
2019-01-02T11:02:32.255Z,3.41
2019-01-02T11:03:32.377Z,3.42
2019-01-02T11:04:32.238Z,3.50
2019-01-02T11:05:32.228Z,3.48
2019-01-02T11:06:32.201Z,3.40
2019-01-02T11:07:32.190Z,3.41
2019-01-02T11:08:32.188Z,3.40
2019-01-02T11:09:32.168Z,3.50
2019-01-02T11:10:32.285Z,3.48
2019-01-02T11:11:32.147Z,3.51
2019-01-02T11:12:32.136Z,3.45
2019-01-02T11:13:32.134Z,3.53
2019-01-02T11:14:32.116Z,3.53
2019-01-02T11:15:32.104Z,3.48
2019-01-02T11:16:32.142Z,3.45
2019-01-02T11:17:32.099Z,3.44
2019-01-02T11:18:32.081Z,3.58
2019-01-02T11:19:32.061Z,3.53
2019-01-02T11:20:32.051Z,3.58
2019-01-02T11:21:32.043Z,3.55
2019-01-02T11:22:32.163Z,3.55
2019-01-02T11:23:32.021Z,3.47
2019-01-02T11:24:32.046Z,3.48
2019-01-02T11:25:31.999Z,3.51
2019-01-02T11:26:31.993Z,3.56
2019-01-02T11:27:31.978Z,3.41
2019-01-02T11:28:32.013Z,3.58
2019-01-02T11:29:31.973Z,3.45
2019-01-02T11:30:31.947Z,3.50
2019-01-02T11:31:31.934Z,3.42
2019-01-02T11:32:31.927Z,3.41
2019-01-02T11:33:31.917Z,3.55
2019-01-02T11:34:31.968Z,3.58
2019-01-02T11:35:31.894Z,3.59
2019-01-02T11:36:31.891Z,3.62
2019-01-02T11:37:31.877Z,3.65
2019-01-02T11:38:31.865Z,3.69
2019-01-02T11:39:31.876Z,3.59
2019-01-02T11:40:31.864Z,3.65
2019-01-02T11:41:31.841Z,3.62
2019-01-02T11:42:31.830Z,3.58
2019-01-02T11:43:31.827Z,3.58
2019-01-02T11:44:31.822Z,3.66
2019-01-02T11:45:31.809Z,3.73
2019-01-02T11:46:31.805Z,3.80
2019-01-02T11:47:31.768Z,3.84
2019-01-02T11:48:31.757Z,3.87
2019-01-02T11:49:31.749Z,3.87
2019-01-02T11:50:31.748Z,3.81
2019-01-02T11:51:31.758Z,3.87
2019-01-02T11:52:31.715Z,4.01
2019-01-02T11:53:31.725Z,4.02
2019-01-02T11:54:31.696Z,4.08
2019-01-02T11:55:31.688Z,4.01
2019-01-02T11:56:31.671Z,4.05
2019-01-02T11:57:31.677Z,3.95
2019-01-02T11:58:31.659Z,3.94
2019-01-02T11:59:31.647Z,3.92
2019-01-02T12:00:31.762Z,3.98
2019-01-02T12:01:31.620Z,4.14
2019-01-02T12:02:34.282Z,4.10
2019-01-02T12:03:31.685Z,4.17
2019-01-02T12:04:31.608Z,4.28
2019-01-02T12:05:31.588Z,4.22
2019-01-02T12:06:31.613Z,4.26
2019-01-02T12:07:31.579Z,4.30
2019-01-02T12:08:31.582Z,4.28
2019-01-02T12:09:31.581Z,4.13
2019-01-02T12:10:31.526Z,4.10
2019-01-02T12:11:31.517Z,3.99
2019-01-02T12:12:31.509Z,3.98
2019-01-02T12:13:31.499Z,3.96
2019-01-02T12:14:31.497Z,3.87
2019-01-02T12:15:31.483Z,3.83
2019-01-02T12:16:31.459Z,3.84
2019-01-02T12:17:31.519Z,3.84
2019-01-02T12:18:31.440Z,3.87
2019-01-02T12:19:31.446Z,3.83
2019-01-02T12:20:31.441Z,3.84
2019-01-02T12:21:31.481Z,3.83
2019-01-02T12:22:31.395Z,3.96
2019-01-02T12:23:31.382Z,3.86
2019-01-02T12:24:31.386Z,3.80
2019-01-02T12:25:31.367Z,3.70
2019-01-02T12:26:31.416Z,3.70
2019-01-02T12:27:31.359Z,3.69
2019-01-02T12:28:31.359Z,3.68
2019-01-02T12:29:31.318Z,3.56
2019-01-02T12:30:31.312Z,3.45
2019-01-02T12:31:31.327Z,3.56
2019-01-02T12:32:31.292Z,3.47
2019-01-02T12:33:31.442Z,3.56
2019-01-02T12:34:31.283Z,3.53
2019-01-02T12:35:31.253Z,3.60
2019-01-02T12:36:31.249Z,3.68
2019-01-02T12:37:31.247Z,3.62
2019-01-02T12:38:31.216Z,3.58
2019-01-02T12:39:31.260Z,3.62
2019-01-02T12:40:31.293Z,3.66
2019-01-02T12:41:31.205Z,3.63
2019-01-02T12:42:31.198Z,3.73
2019-01-02T12:43:31.164Z,3.74
2019-01-02T12:44:31.156Z,3.66
2019-01-02T12:45:31.258Z,3.69
2019-01-02T12:46:31.143Z,3.68
2019-01-02T12:47:31.129Z,3.70
2019-01-02T12:48:31.119Z,3.74
2019-01-02T12:49:31.227Z,3.65
2019-01-02T12:50:31.117Z,3.60
2019-01-02T12:51:31.087Z,3.66
2019-01-02T12:52:31.095Z,3.66
2019-01-02T12:53:31.068Z,3.63
2019-01-02T12:54:31.066Z,3.65
2019-01-02T12:55:31.055Z,3.63
2019-01-02T12:56:31.042Z,3.69
2019-01-02T12:57:31.024Z,3.63
2019-01-02T12:58:31.034Z,3.60
2019-01-02T12:59:31.008Z,3.60
2019-01-02T13:00:31.000Z,3.58
2019-01-02T13:01:30.970Z,3.53
2019-01-02T13:02:30.991Z,3.42
2019-01-02T13:03:31.106Z,3.50
2019-01-02T13:04:30.968Z,3.44
2019-01-02T13:05:30.949Z,3.59
2019-01-02T13:06:30.939Z,3.56
2019-01-02T13:07:30.915Z,3.70
2019-01-02T13:08:30.928Z,3.60
2019-01-02T13:09:30.897Z,3.68
2019-01-02T13:10:30.871Z,3.63
2019-01-02T13:11:30.921Z,3.66
2019-01-02T13:12:30.859Z,3.59
2019-01-02T13:13:30.852Z,3.60
2019-01-02T13:14:30.861Z,3.63
2019-01-02T13:15:30.816Z,3.65
2019-01-02T13:16:30.828Z,3.69
2019-01-02T13:17:30.797Z,3.62
2019-01-02T13:18:30.786Z,3.62